Weather at Finner Camp Heliport

Public forecast

Using degrees Celsius for public forecast. Weather courtesy of forecast.io.

Closest aviation weather report (METAR) to Finner Camp Heliport

Closest report is Sligo Airport, 17.9 nm (33.1 km) SW.

2024/04/21 20:00 (retrieved 56 minutes ago)

EISG 212000Z 32005KT CAVOK 11/11 Q1032

Closest aviation forecast (TAF) to Finner Camp Heliport

Closest forecast is Ireland West Knock Airport, 40.4 nm (74.9 km) SSW.

2024/04/21 18:18 (retrieved 3 hours ago)

TAF EIKN 211700Z 2118/2218 36010KT 9999 FEW020 BECMG 2121/2123 VRB03KT PROB30 TEMPO 2123/2201 3000 BR PROB40 TEMPO 2201/2207 0300 FG BKN001 TEMPO 2206/2209 BKN010 BECMG 2208/2210 35012KT PROB30 TEMPO 2215/2218 35014G25KT